Time;durP1;ratioP1;P1;durP2;ratioP2;P2;SDS_P1;SDS_P2;PMS_P1;PMS_P2;Temp;Humidity;BMP_temperature;BMP_pressure;BME280_temperature;BME280_humidity;BME280_pressure;Samples;Min_cycle;Max_cycle;Signal;HPM_P1;HPM_P2
2022/08/05 00:02:05;;;;;;;11.02;3.85;;;19.30;99.90;;;;;;5092083;28;20036;-68
2022/08/05 00:04:31;;;;;;;9.68;3.50;;;19.30;99.90;;;;;;5074906;28;20044;-67
2022/08/05 00:06:57;;;;;;;8.07;3.75;;;19.30;99.90;;;;;;5092149;28;20040;-67
2022/08/05 00:09:22;;;;;;;10.25;3.95;;;19.30;99.90;;;;;;5093235;28;20104;-67
2022/08/05 00:11:48;;;;;;;11.70;4.10;;;19.20;99.90;;;;;;5093133;28;20056;-67
2022/08/05 00:14:14;;;;;;;9.52;4.10;;;19.30;99.90;;;;;;5092987;28;20377;-68
2022/08/05 00:16:40;;;;;;;12.35;4.35;;;19.30;99.90;;;;;;5093630;28;20036;-67
2022/08/05 00:19:06;;;;;;;11.52;4.18;;;19.20;99.90;;;;;;5093276;28;20105;-68
2022/08/05 00:21:31;;;;;;;9.65;4.28;;;19.30;99.90;;;;;;5095511;28;20067;-68
2022/08/05 00:23:59;;;;;;;7.85;3.85;;;19.30;99.90;;;;;;5093090;28;20056;-67
2022/08/05 00:26:25;;;;;;;10.63;3.72;;;19.20;99.90;;;;;;5091618;28;20059;-67
2022/08/05 00:28:51;;;;;;;9.43;3.72;;;19.20;99.90;;;;;;5093298;28;20109;-67
2022/08/05 00:31:17;;;;;;;10.07;3.38;;;19.20;99.90;;;;;;5091434;28;20135;-67
2022/08/05 00:33:43;;;;;;;8.13;3.63;;;19.30;99.90;;;;;;5092775;28;20046;-67
2022/08/05 00:36:09;;;;;;;7.13;4.03;;;19.20;99.90;;;;;;5091820;28;20119;-67
2022/08/05 00:38:35;;;;;;;9.32;3.33;;;19.20;99.90;;;;;;5091386;28;20097;-67
2022/08/05 00:41:01;;;;;;;9.05;4.05;;;19.20;99.90;;;;;;5074036;28;20044;-67
2022/08/05 00:43:27;;;;;;;10.05;3.72;;;19.30;99.90;;;;;;5092204;28;20489;-68
2022/08/05 00:45:53;;;;;;;9.68;3.47;;;19.30;99.90;;;;;;5092705;28;20044;-67
2022/08/05 00:48:21;;;;;;;7.10;3.40;;;19.40;99.90;;;;;;5092647;28;20054;-67
2022/08/05 00:50:49;;;;;;;7.78;3.78;;;19.40;99.90;;;;;;5092493;28;20075;-67
2022/08/05 00:53:20;;;;;;;7.13;3.50;;;19.40;99.90;;;;;;5092164;28;20115;-67
2022/08/05 00:55:46;;;;;;;8.05;4.03;;;19.40;99.90;;;;;;5091941;28;20116;-68
2022/08/05 00:58:15;;;;;;;12.60;3.90;;;19.40;99.90;;;;;;5090953;28;20139;-67
2022/08/05 01:00:41;;;;;;;8.13;3.88;;;19.40;99.90;;;;;;5092259;28;20419;-67
2022/08/05 01:03:07;;;;;;;13.30;3.63;;;19.40;99.90;;;;;;5090809;28;20051;-68
2022/08/05 01:05:32;;;;;;;10.73;3.75;;;19.30;99.90;;;;;;5090915;28;20036;-68
2022/08/05 01:07:58;;;;;;;7.32;3.80;;;19.30;99.90;;;;;;5092030;28;20044;-67
2022/08/05 01:10:31;;;;;;;11.82;3.58;;;19.30;99.90;;;;;;5090745;28;20036;-67
2022/08/05 01:13:06;;;;;;;9.43;3.90;;;19.40;99.90;;;;;;5092021;28;20349;-67
2022/08/05 01:15:41;;;;;;;8.63;4.00;;;19.30;99.90;;;;;;5090671;28;20032;-68
2022/08/05 01:18:14;;;;;;;8.32;3.47;;;19.40;99.90;;;;;;5090755;28;20040;-68
2022/08/05 01:21:08;;;;;;;10.45;3.78;;;19.40;99.90;;;;;;5091835;28;20093;-67
2022/08/05 01:23:40;;;;;;;6.10;3.30;;;19.30;99.90;;;;;;5090284;28;20527;-67
2022/08/05 01:26:18;;;;;;;7.43;3.95;;;19.20;99.90;;;;;;5092598;28;20050;-68
2022/08/05 01:28:50;;;;;;;9.70;3.95;;;19.10;99.90;;;;;;5093142;28;20055;-68
2022/08/05 01:31:36;;;;;;;5.53;3.25;;;19.10;99.90;;;;;;5090314;28;20090;-68
2022/08/05 01:34:10;;;;;;;8.55;3.42;;;19.10;99.90;;;;;;5091673;28;20155;-67
2022/08/05 01:36:45;;;;;;;6.20;3.80;;;19.00;99.90;;;;;;5090233;28;20036;-67
2022/08/05 01:39:12;;;;;;;7.32;3.75;;;19.00;99.90;;;;;;5090286;28;20115;-68
2022/08/05 01:41:39;;;;;;;5.78;3.58;;;18.90;99.90;;;;;;5090087;28;20081;-68
2022/08/05 01:44:06;;;;;;;10.35;3.83;;;19.00;99.90;;;;;;5089858;28;20154;-67
2022/08/05 01:46:34;;;;;;;7.85;3.65;;;18.90;99.90;;;;;;5091597;28;20032;-67
2022/08/05 01:49:01;;;;;;;11.13;3.95;;;19.00;99.90;;;;;;5090171;28;20349;-68
2022/08/05 01:51:29;;;;;;;7.20;4.10;;;19.00;99.90;;;;;;5091300;28;20051;-67
2022/08/05 01:53:58;;;;;;;8.95;3.63;;;19.10;99.90;;;;;;5072631;28;20136;-68
2022/08/05 01:56:27;;;;;;;12.32;3.80;;;19.20;99.90;;;;;;5091599;28;20036;-67
2022/08/05 01:58:55;;;;;;;6.70;3.80;;;19.20;99.90;;;;;;5089639;28;20146;-68
2022/08/05 02:01:22;;;;;;;8.35;3.78;;;19.20;99.90;;;;;;5091244;28;20044;-67
2022/08/05 02:03:50;;;;;;;6.20;4.07;;;19.30;99.90;;;;;;5090817;28;20052;-68
2022/08/05 02:06:16;;;;;;;10.90;3.88;;;19.30;99.90;;;;;;5090939;28;20110;-68
2022/08/05 02:08:42;;;;;;;9.93;4.18;;;19.30;99.90;;;;;;5090489;28;20050;-67
2022/08/05 02:11:11;;;;;;;9.88;4.25;;;19.30;99.90;;;;;;5089640;28;20086;-68
2022/08/05 02:13:39;;;;;;;11.23;4.20;;;19.30;99.90;;;;;;5089280;28;20046;-68
2022/08/05 02:16:14;;;;;;;8.90;3.88;;;19.30;99.90;;;;;;5089701;28;20044;-68
2022/08/05 02:18:44;;;;;;;6.25;3.72;;;19.40;99.90;;;;;;5089503;28;20043;-67
2022/08/05 02:21:18;;;;;;;7.95;4.32;;;19.30;99.90;;;;;;5089268;28;20044;-67
2022/08/05 02:23:49;;;;;;;7.18;4.15;;;19.30;99.90;;;;;;5090684;28;20051;-68
2022/08/05 02:26:22;;;;;;;10.65;4.13;;;19.30;99.90;;;;;;5089642;28;20113;-68
2022/08/05 02:28:48;;;;;;;12.43;4.28;;;19.30;99.90;;;;;;5090723;28;20043;-68
2022/08/05 02:31:21;;;;;;;7.47;3.83;;;19.30;99.90;;;;;;5089233;28;20060;-68
2022/08/05 02:33:51;;;;;;;6.85;3.90;;;19.30;99.90;;;;;;5091136;28;20044;-68
2022/08/05 02:36:19;;;;;;;7.57;3.83;;;19.30;99.90;;;;;;5093025;28;20032;-68
2022/08/05 02:38:47;;;;;;;5.22;3.80;;;19.30;99.90;;;;;;5090546;28;20063;-68
2022/08/05 02:41:15;;;;;;;8.98;3.88;;;19.30;99.90;;;;;;5090427;28;20500;-68
2022/08/05 02:43:42;;;;;;;7.32;3.78;;;19.30;99.90;;;;;;5088756;28;20345;-68
2022/08/05 02:46:08;;;;;;;7.28;3.78;;;19.30;99.90;;;;;;5088836;28;20044;-68
2022/08/05 02:48:36;;;;;;;11.45;3.38;;;19.30;99.90;;;;;;5090209;28;20039;-66
2022/08/05 02:51:03;;;;;;;6.90;3.60;;;19.30;99.90;;;;;;5090223;28;20080;-67
2022/08/05 02:53:32;;;;;;;8.40;3.50;;;19.30;99.90;;;;;;5088586;28;20536;-67
2022/08/05 02:55:59;;;;;;;6.43;3.45;;;19.30;99.90;;;;;;5072276;28;20459;-67
2022/08/05 02:58:25;;;;;;;7.60;3.35;;;19.30;99.90;;;;;;5088805;28;20036;-67
2022/08/05 03:00:57;;;;;;;6.05;3.40;;;19.30;99.90;;;;;;5090208;28;20035;-67
2022/08/05 03:03:24;;;;;;;8.52;3.97;;;19.20;99.90;;;;;;5090014;28;20119;-67
2022/08/05 03:05:51;;;;;;;8.25;3.63;;;19.20;99.90;;;;;;5090161;28;20036;-66
2022/08/05 03:08:17;;;;;;;12.85;4.00;;;19.20;99.90;;;;;;5090065;28;20043;-67
2022/08/05 03:10:44;;;;;;;5.65;4.05;;;19.20;99.90;;;;;;5088649;28;20040;-67
2022/08/05 03:13:14;;;;;;;5.47;3.90;;;19.20;99.90;;;;;;5089336;28;20039;-67
2022/08/05 03:15:44;;;;;;;10.75;4.13;;;19.20;99.90;;;;;;5090087;28;20077;-67
2022/08/05 03:18:10;;;;;;;10.73;3.83;;;19.20;99.90;;;;;;5089939;28;20039;-67
2022/08/05 03:20:36;;;;;;;7.53;3.53;;;19.20;99.90;;;;;;5088192;28;20036;-67
2022/08/05 03:23:04;;;;;;;9.05;3.78;;;19.20;99.90;;;;;;5089575;28;20036;-67
2022/08/05 03:25:30;;;;;;;8.15;3.80;;;19.20;99.90;;;;;;5088415;28;20111;-66
2022/08/05 03:27:56;;;;;;;7.78;3.50;;;19.20;99.90;;;;;;5071322;28;20123;-67
2022/08/05 03:30:23;;;;;;;8.95;4.00;;;19.20;99.90;;;;;;5089671;28;20036;-66
2022/08/05 03:32:49;;;;;;;6.20;3.67;;;19.20;99.90;;;;;;5088058;28;20084;-66
2022/08/05 03:35:14;;;;;;;7.80;3.50;;;19.10;99.90;;;;;;5089831;28;20468;-67
2022/08/05 03:37:40;;;;;;;6.43;3.55;;;19.20;99.90;;;;;;5089740;28;20142;-67
2022/08/05 03:40:08;;;;;;;8.25;3.30;;;19.20;99.90;;;;;;5090109;28;20079;-67
2022/08/05 03:42:34;;;;;;;6.53;3.55;;;19.20;99.90;;;;;;5093389;28;20546;-67
2022/08/05 03:45:00;;;;;;;6.70;3.15;;;19.20;99.90;;;;;;5091684;28;20401;-66
2022/08/05 03:47:26;;;;;;;10.25;4.13;;;19.10;99.90;;;;;;5089898;28;20044;-66
2022/08/05 03:49:51;;;;;;;7.45;3.63;;;19.10;99.90;;;;;;5088275;28;20044;-66
2022/08/05 03:52:23;;;;;;;8.02;3.60;;;19.10;99.90;;;;;;5089277;28;20115;-66
2022/08/05 03:54:58;;;;;;;9.00;3.30;;;19.10;99.90;;;;;;5088369;28;20097;-67
2022/08/05 03:57:28;;;;;;;8.60;3.47;;;19.10;99.90;;;;;;5089561;28;20036;-66
2022/08/05 04:00:06;;;;;;;7.30;3.40;;;19.10;99.90;;;;;;5089843;28;20042;-66
2022/08/05 04:02:34;;;;;;;9.35;3.88;;;19.00;99.90;;;;;;5089172;28;20044;-67
2022/08/05 04:05:01;;;;;;;6.50;2.97;;;18.80;99.90;;;;;;5088737;28;20419;-67
2022/08/05 04:07:27;;;;;;;3.97;3.10;;;18.80;99.90;;;;;;5086852;28;20082;-67
2022/08/05 04:09:54;;;;;;;6.03;3.67;;;18.80;99.90;;;;;;5087559;28;20056;-66
2022/08/05 04:12:20;;;;;;;7.60;3.28;;;18.80;99.90;;;;;;5087524;28;20146;-67
2022/08/05 04:14:46;;;;;;;6.68;3.30;;;18.70;99.90;;;;;;5087125;28;20132;-67
2022/08/05 04:17:12;;;;;;;10.15;4.13;;;18.70;99.90;;;;;;5085892;28;20060;-67
2022/08/05 04:19:47;;;;;;;9.52;3.58;;;18.80;99.90;;;;;;5085970;28;20035;-67
2022/08/05 04:22:13;;;;;;;5.93;3.22;;;18.80;99.90;;;;;;5086732;28;20043;-67
2022/08/05 04:24:44;;;;;;;10.27;3.30;;;18.90;99.90;;;;;;5088266;28;20054;-66
2022/08/05 04:27:13;;;;;;;7.63;3.15;;;18.90;99.90;;;;;;5088734;28;20380;-67
2022/08/05 04:29:39;;;;;;;13.35;3.80;;;18.90;99.90;;;;;;5088182;28;20473;-67
2022/08/05 04:32:06;;;;;;;11.40;4.57;;;18.90;99.90;;;;;;5091514;28;20040;-66
2022/08/05 04:34:32;;;;;;;7.00;3.53;;;18.90;99.90;;;;;;5090680;28;20047;-66
2022/08/05 04:36:57;;;;;;;8.23;3.53;;;18.90;99.90;;;;;;5090224;28;20036;-66
2022/08/05 04:39:23;;;;;;;7.25;3.45;;;18.90;99.90;;;;;;5092324;28;20040;-66
2022/08/05 04:41:49;;;;;;;10.30;3.60;;;19.00;99.90;;;;;;5092646;28;20079;-66
2022/08/05 04:44:15;;;;;;;7.32;3.47;;;19.00;99.90;;;;;;5092549;28;20407;-66
2022/08/05 04:46:41;;;;;;;11.10;3.95;;;19.00;99.90;;;;;;5092857;28;20044;-66
2022/08/05 04:49:07;;;;;;;5.25;3.38;;;18.90;99.90;;;;;;5094683;28;20115;-66
2022/08/05 04:51:33;;;;;;;9.32;3.45;;;18.90;99.90;;;;;;5094161;28;20076;-66
2022/08/05 04:53:59;;;;;;;5.55;3.63;;;18.90;99.90;;;;;;5092249;28;20060;-66
2022/08/05 04:56:25;;;;;;;10.80;3.92;;;18.90;99.90;;;;;;5092531;28;20054;-66
2022/08/05 04:58:50;;;;;;;8.65;3.72;;;18.90;99.90;;;;;;5092565;28;20036;-66
2022/08/05 05:01:16;;;;;;;6.68;3.60;;;18.90;99.90;;;;;;5092351;28;20036;-66
2022/08/05 05:03:42;;;;;;;6.13;3.88;;;18.90;99.90;;;;;;5090543;28;20051;-66
2022/08/05 05:06:12;;;;;;;7.20;4.15;;;18.90;99.90;;;;;;5092237;28;20140;-66
2022/08/05 05:08:38;;;;;;;9.75;4.30;;;18.90;99.90;;;;;;5090863;28;20063;-66
2022/08/05 05:11:03;;;;;;;10.45;3.83;;;18.90;99.90;;;;;;5090600;28;20437;-66
2022/08/05 05:13:29;;;;;;;8.90;3.97;;;18.90;99.90;;;;;;5090475;28;20063;-66
2022/08/05 05:15:54;;;;;;;12.68;3.78;;;18.90;99.90;;;;;;5092172;28;20129;-66
2022/08/05 05:18:20;;;;;;;11.52;3.53;;;18.90;99.90;;;;;;5091995;28;20072;-67
2022/08/05 05:20:46;;;;;;;9.40;3.72;;;18.90;99.90;;;;;;5090500;28;20043;-67
2022/08/05 05:23:13;;;;;;;6.93;3.58;;;18.90;99.90;;;;;;5091626;28;20106;-66
2022/08/05 05:25:40;;;;;;;11.80;3.50;;;18.90;99.90;;;;;;5090547;28;20047;-67
2022/08/05 05:28:06;;;;;;;7.05;3.90;;;18.90;99.90;;;;;;5092106;28;20372;-66
2022/08/05 05:30:32;;;;;;;5.10;3.45;;;18.90;99.90;;;;;;5091693;28;20044;-66
2022/08/05 05:32:59;;;;;;;10.93;3.47;;;18.90;99.90;;;;;;5090259;28;20139;-67
2022/08/05 05:35:25;;;;;;;7.05;3.42;;;18.90;99.90;;;;;;5073616;28;20046;-67
2022/08/05 05:37:56;;;;;;;7.22;3.95;;;18.90;99.90;;;;;;5091880;28;20539;-67
2022/08/05 05:40:23;;;;;;;10.32;4.22;;;18.90;99.90;;;;;;5091699;28;20039;-66
2022/08/05 05:42:50;;;;;;;11.73;3.90;;;18.90;99.90;;;;;;5089752;28;20047;-67
2022/08/05 05:45:16;;;;;;;8.32;3.92;;;18.80;99.90;;;;;;5090248;28;20062;-67
2022/08/05 05:47:42;;;;;;;5.53;3.53;;;18.80;99.90;;;;;;5091486;28;20044;-67
2022/08/05 05:50:10;;;;;;;7.97;3.38;;;18.90;99.90;;;;;;5091348;28;20040;-67
2022/08/05 05:52:36;;;;;;;10.68;3.50;;;18.90;99.90;;;;;;5089555;28;20563;-67
2022/08/05 05:55:04;;;;;;;11.52;3.28;;;18.90;99.90;;;;;;5091486;28;20072;-66
2022/08/05 05:57:30;;;;;;;5.55;3.33;;;18.90;99.90;;;;;;5094649;28;20032;-67
2022/08/05 05:59:55;;;;;;;9.07;3.70;;;18.90;99.90;;;;;;5093831;28;20036;-67
2022/08/05 06:02:21;;;;;;;3.67;3.15;;;18.90;99.90;;;;;;5090575;28;20079;-67
2022/08/05 06:04:46;;;;;;;4.55;3.03;;;18.90;99.90;;;;;;5089640;28;20148;-66
2022/08/05 06:07:12;;;;;;;8.70;3.30;;;18.90;99.90;;;;;;5091024;28;20043;-67
2022/08/05 06:09:37;;;;;;;11.35;3.80;;;18.90;99.90;;;;;;5089591;28;20079;-66
2022/08/05 06:12:04;;;;;;;8.85;3.40;;;19.00;99.90;;;;;;5090770;28;20075;-66
2022/08/05 06:14:30;;;;;;;10.18;3.97;;;18.90;99.90;;;;;;5089203;28;20089;-67
2022/08/05 06:16:56;;;;;;;11.38;3.63;;;18.90;99.90;;;;;;5079379;28;20033;-66
2022/08/05 06:19:21;;;;;;;11.63;4.22;;;18.90;99.90;;;;;;5059416;28;20063;-67
2022/08/05 06:21:47;;;;;;;8.27;3.92;;;19.00;99.90;;;;;;5057429;28;20041;-66
2022/08/05 06:24:12;;;;;;;5.32;3.60;;;19.00;99.90;;;;;;5064895;28;20035;-67
2022/08/05 06:26:41;;;;;;;10.32;3.78;;;19.00;99.90;;;;;;5068846;28;20040;-67
2022/08/05 06:29:07;;;;;;;12.38;3.92;;;19.00;99.90;;;;;;5068392;28;20150;-67
2022/08/05 06:31:32;;;;;;;7.88;3.65;;;19.10;99.90;;;;;;5068684;28;20138;-66
2022/08/05 06:33:58;;;;;;;5.15;3.28;;;19.00;99.90;;;;;;5070062;28;20044;-66
2022/08/05 06:36:23;;;;;;;9.30;4.00;;;19.00;99.90;;;;;;5068822;28;20585;-67
2022/08/05 06:38:53;;;;;;;9.88;3.90;;;19.00;99.90;;;;;;5070170;28;20044;-65
2022/08/05 06:41:19;;;;;;;7.82;4.22;;;19.10;99.90;;;;;;5068757;28;20044;-66
2022/08/05 06:43:45;;;;;;;10.43;4.10;;;19.10;99.90;;;;;;5069017;28;20091;-66
2022/08/05 06:46:10;;;;;;;7.10;3.65;;;19.10;99.90;;;;;;5070254;28;20102;-67
2022/08/05 06:48:36;;;;;;;9.00;3.92;;;19.10;99.90;;;;;;5068735;28;20487;-67
2022/08/05 06:51:03;;;;;;;8.38;3.55;;;19.10;99.90;;;;;;5068652;28;20059;-67
2022/08/05 06:53:28;;;;;;;9.23;3.60;;;19.10;99.90;;;;;;5069396;28;20441;-67
2022/08/05 06:55:58;;;;;;;9.45;3.42;;;19.10;99.90;;;;;;5070034;28;20131;-67
2022/08/05 06:58:24;;;;;;;8.82;3.72;;;19.10;99.90;;;;;;5069927;28;20117;-67
2022/08/05 07:00:50;;;;;;;7.85;3.63;;;19.20;99.90;;;;;;5070211;28;20075;-67
2022/08/05 07:03:16;;;;;;;9.70;3.65;;;19.20;99.90;;;;;;5070033;28;20052;-67
2022/08/05 07:05:42;;;;;;;6.20;3.60;;;19.20;99.90;;;;;;5071767;28;20048;-67
2022/08/05 07:08:07;;;;;;;8.20;3.75;;;19.20;99.90;;;;;;5069859;28;20044;-69
2022/08/05 07:10:33;;;;;;;10.00;4.00;;;19.30;99.90;;;;;;5070052;28;20072;-69
2022/08/05 07:18:26;;;;;;;7.57;3.40;;;19.30;99.90;;;;;;5069888;28;20033;-68
2022/08/05 07:20:52;;;;;;;7.40;3.38;;;19.40;99.90;;;;;;5068623;28;20472;-68
2022/08/05 07:23:18;;;;;;;13.25;3.55;;;19.50;99.90;;;;;;5068691;28;20079;-68
2022/08/05 07:25:43;;;;;;;8.45;3.78;;;19.50;99.90;;;;;;5069675;28;20051;-68
2022/08/05 07:28:09;;;;;;;7.38;3.53;;;19.50;99.90;;;;;;5068839;28;20041;-68
2022/08/05 07:30:36;;;;;;;5.97;2.88;;;19.60;99.90;;;;;;5067996;28;20495;-68
2022/08/05 07:33:03;;;;;;;5.57;2.88;;;19.60;99.90;;;;;;5068051;28;20028;-68
2022/08/05 07:35:29;;;;;;;10.55;3.33;;;19.70;99.90;;;;;;5068327;28;20384;-68
2022/08/05 07:37:54;;;;;;;5.65;2.70;;;19.70;99.90;;;;;;5069689;28;20115;-68
2022/08/05 07:40:20;;;;;;;3.60;2.50;;;19.70;99.90;;;;;;5068094;28;20043;-69
2022/08/05 07:42:46;;;;;;;8.45;2.83;;;19.90;99.90;;;;;;5068915;28;20037;-69
2022/08/05 07:45:12;;;;;;;7.75;2.72;;;19.90;99.90;;;;;;5069367;28;20101;-69
2022/08/05 07:47:38;;;;;;;4.90;2.20;;;20.00;99.90;;;;;;5069600;28;20036;-69
2022/08/05 07:50:04;;;;;;;8.35;3.10;;;20.00;99.90;;;;;;5068044;28;20075;-69
2022/08/05 07:52:30;;;;;;;7.85;2.42;;;19.90;99.90;;;;;;5067474;28;20071;-69
2022/08/05 07:54:56;;;;;;;7.35;2.38;;;20.00;99.90;;;;;;5069321;28;20082;-69
2022/08/05 07:57:21;;;;;;;3.58;2.50;;;20.10;99.90;;;;;;5069315;28;20033;-69
2022/08/05 07:59:47;;;;;;;8.38;2.50;;;20.10;99.90;;;;;;5068233;28;20045;-72
2022/08/05 08:02:13;;;;;;;5.70;1.98;;;20.10;99.90;;;;;;5067563;28;20040;-70
2022/08/05 08:04:38;;;;;;;6.50;2.50;;;20.20;99.90;;;;;;5068092;28;20048;-71
2022/08/05 08:07:05;;;;;;;4.68;1.77;;;20.20;99.90;;;;;;5070965;28;20112;-70
2022/08/05 08:09:30;;;;;;;5.10;1.52;;;20.30;99.90;;;;;;5070785;28;20055;-69
2022/08/05 08:11:56;;;;;;;4.80;1.63;;;20.30;99.90;;;;;;5073615;28;20036;-70
2022/08/05 08:14:21;;;;;;;7.78;1.85;;;20.40;99.90;;;;;;5088262;28;20052;-70
2022/08/05 08:16:47;;;;;;;4.68;1.67;;;20.50;99.90;;;;;;5078442;28;20040;-69
2022/08/05 08:19:13;;;;;;;3.35;1.45;;;20.60;99.90;;;;;;5071956;28;20028;-69
2022/08/05 08:21:38;;;;;;;4.68;1.60;;;20.70;99.90;;;;;;5071951;28;20127;-69
2022/08/05 08:24:04;;;;;;;2.55;1.50;;;20.50;99.90;;;;;;5071132;28;20044;-69
2022/08/05 08:26:30;;;;;;;8.48;2.10;;;20.50;99.90;;;;;;5055057;28;20048;-69
2022/08/05 08:28:58;;;;;;;2.67;1.60;;;20.50;99.90;;;;;;5071905;28;20182;-69
2022/08/05 08:31:23;;;;;;;8.32;2.03;;;20.50;99.90;;;;;;5073380;28;20045;-69
2022/08/05 08:33:49;;;;;;;4.97;1.52;;;20.50;99.90;;;;;;5071424;28;20044;-70
2022/08/05 08:36:15;;;;;;;3.97;1.60;;;20.50;99.90;;;;;;5066183;28;20453;-70
2022/08/05 08:38:40;;;;;;;3.13;1.25;;;20.70;99.90;;;;;;5060639;28;20037;-69
2022/08/05 08:41:09;;;;;;;4.72;1.23;;;20.70;99.90;;;;;;5063793;28;20044;-69
2022/08/05 08:43:36;;;;;;;3.25;2.20;;;20.60;99.90;;;;;;5060413;28;20040;-69
2022/08/05 08:46:03;;;;;;;2.03;1.38;;;20.70;99.90;;;;;;5059708;28;20041;-70
2022/08/05 08:48:31;;;;;;;6.28;1.40;;;20.80;99.90;;;;;;5060881;28;20354;-70
2022/08/05 08:50:58;;;;;;;3.13;1.40;;;20.80;99.90;;;;;;5061751;28;20049;-70
2022/08/05 08:53:26;;;;;;;3.08;1.25;;;20.80;99.90;;;;;;5063086;28;20055;-68
2022/08/05 08:55:51;;;;;;;4.15;1.30;;;20.90;99.90;;;;;;5071108;28;20048;-68
2022/08/05 08:58:17;;;;;;;3.95;1.20;;;20.90;99.90;;;;;;5070967;28;20043;-69
2022/08/05 09:00:43;;;;;;;4.22;1.58;;;21.00;99.90;;;;;;5070810;28;20036;-70
2022/08/05 09:03:10;;;;;;;3.78;1.20;;;21.10;99.90;;;;;;5070491;28;20110;-67
2022/08/05 09:05:36;;;;;;;5.32;1.27;;;21.10;99.90;;;;;;5071631;28;20040;-67
2022/08/05 09:08:02;;;;;;;2.35;1.05;;;21.30;99.90;;;;;;5071096;28;20045;-67
2022/08/05 09:10:28;;;;;;;4.68;1.10;;;21.30;99.90;;;;;;5070501;28;20036;-67
2022/08/05 09:12:54;;;;;;;7.32;1.60;;;21.40;99.90;;;;;;5052350;28;20115;-67
2022/08/05 09:15:20;;;;;;;2.50;1.00;;;21.40;99.90;;;;;;5051133;28;20041;-67
2022/08/05 09:17:46;;;;;;;4.35;1.20;;;21.40;99.90;;;;;;5054623;28;20045;-67
2022/08/05 09:20:12;;;;;;;3.15;1.08;;;21.50;99.90;;;;;;5071389;28;20040;-67
2022/08/05 09:23:09;;;;;;;2.10;0.82;;;21.50;99.90;;;;;;5076873;28;20040;-67
2022/08/05 09:25:36;;;;;;;4.85;1.20;;;21.60;99.90;;;;;;5071145;28;20484;-68
2022/08/05 09:28:14;;;;;;;4.30;1.13;;;21.70;99.90;;;;;;5069995;28;20071;-68
2022/08/05 09:30:50;;;;;;;3.75;1.00;;;21.80;99.90;;;;;;5069972;28;20044;-69
2022/08/05 09:33:16;;;;;;;6.82;1.10;;;22.00;99.90;;;;;;5053573;28;20068;-67
2022/08/05 09:35:58;;;;;;;6.80;1.15;;;21.90;99.90;;;;;;5069827;28;20044;-67
2022/08/05 09:38:24;;;;;;;3.53;0.93;;;21.90;99.90;;;;;;5071106;28;20526;-67
2022/08/05 09:40:50;;;;;;;5.90;0.93;;;22.00;99.90;;;;;;5071335;28;20040;-66
2022/08/05 09:43:38;;;;;;;2.58;1.23;;;22.10;99.90;;;;;;5071189;28;20382;-67
2022/08/05 09:46:05;;;;;;;2.22;0.68;;;22.10;99.90;;;;;;5070409;28;20099;-67
2022/08/05 09:48:33;;;;;;;4.00;1.10;;;22.10;99.90;;;;;;5071747;28;20036;-67
2022/08/05 09:51:07;;;;;;;3.15;1.05;;;22.10;99.90;;;;;;5071144;28;20064;-67
2022/08/05 09:53:47;;;;;;;6.28;0.90;;;22.20;99.90;;;;;;5052730;28;20036;-67
2022/08/05 09:56:13;;;;;;;2.22;0.88;;;22.20;99.90;;;;;;5070716;28;20075;-66
2022/08/05 09:58:39;;;;;;;2.10;0.80;;;22.40;99.90;;;;;;5070894;28;20076;-67
2022/08/05 10:01:06;;;;;;;2.60;0.73;;;22.40;99.90;;;;;;5064545;28;20072;-67
2022/08/05 10:03:32;;;;;;;2.58;0.80;;;22.50;99.90;;;;;;5032622;28;20084;-67
2022/08/05 10:06:07;;;;;;;2.80;0.70;;;22.50;99.90;;;;;;5050688;28;20497;-67
2022/08/05 10:08:33;;;;;;;1.85;0.70;;;22.60;99.90;;;;;;5050892;28;20095;-67
2022/08/05 10:11:03;;;;;;;2.65;0.60;;;22.70;99.90;;;;;;5050306;28;20540;-67
2022/08/05 10:13:34;;;;;;;1.45;0.60;;;22.80;99.90;;;;;;5050470;28;20068;-67
2022/08/05 10:16:01;;;;;;;1.67;0.80;;;22.80;99.90;;;;;;5050423;28;20037;-66
2022/08/05 10:18:26;;;;;;;1.65;0.77;;;22.80;99.90;;;;;;5050540;28;20436;-66
2022/08/05 10:20:55;;;;;;;2.35;0.70;;;22.80;99.90;;;;;;5050216;28;20032;-66
2022/08/05 10:23:36;;;;;;;1.25;0.57;;;22.80;99.90;;;;;;5050050;28;20108;-66
2022/08/05 10:26:08;;;;;;;1.17;0.50;;;22.80;99.90;;;;;;5048666;28;20076;-66
2022/08/05 10:28:35;;;;;;;2.05;0.52;;;22.90;99.90;;;;;;5049844;28;20556;-67
2022/08/05 10:31:01;;;;;;;4.03;0.50;;;22.80;99.90;;;;;;5053585;28;20120;-67
2022/08/05 10:33:30;;;;;;;1.33;0.73;;;22.90;99.90;;;;;;5051605;28;20076;-67
2022/08/05 10:35:56;;;;;;;2.25;0.60;;;22.90;99.90;;;;;;5048925;28;20497;-70
2022/08/05 10:38:25;;;;;;;3.00;0.70;;;23.00;99.90;;;;;;5050811;28;20033;-70
2022/08/05 10:40:53;;;;;;;2.13;0.60;;;23.00;99.90;;;;;;5050473;28;20087;-69
2022/08/05 10:43:39;;;;;;;1.15;0.60;;;23.10;99.90;;;;;;5048715;28;20044;-70
2022/08/05 10:46:07;;;;;;;1.40;0.55;;;23.20;99.90;;;;;;5050344;28;20040;-69
2022/08/05 10:48:45;;;;;;;1.88;0.88;;;23.20;99.90;;;;;;5050358;28;20047;-70
2022/08/05 10:51:16;;;;;;;1.42;0.60;;;23.20;99.90;;;;;;5050281;28;20041;-69
2022/08/05 10:53:59;;;;;;;1.23;0.60;;;23.30;98.50;;;;;;5048710;28;20041;-70
2022/08/05 10:56:35;;;;;;;2.88;0.57;;;23.30;96.30;;;;;;5050328;28;20500;-70
2022/08/05 10:59:04;;;;;;;1.63;0.50;;;23.20;98.00;;;;;;5050051;28;20060;-69
2022/08/05 11:01:31;;;;;;;1.08;0.55;;;23.30;98.20;;;;;;5048618;28;20094;-69
2022/08/05 11:04:16;;;;;;;2.75;0.60;;;23.30;98.30;;;;;;5051443;28;20115;-70
2022/08/05 11:06:57;;;;;;;1.30;0.55;;;23.30;97.80;;;;;;5051477;28;20044;-70
2022/08/05 11:09:24;;;;;;;1.23;0.50;;;23.40;97.30;;;;;;5049985;28;20037;-69
2022/08/05 11:11:52;;;;;;;0.88;0.52;;;23.40;97.30;;;;;;5050056;28;20053;-69
2022/08/05 11:14:28;;;;;;;1.20;0.50;;;23.40;97.20;;;;;;5049821;28;20603;-69
2022/08/05 11:17:25;;;;;;;1.73;0.60;;;23.40;95.90;;;;;;5048817;28;20049;-69
2022/08/05 11:19:56;;;;;;;1.42;0.40;;;23.40;94.70;;;;;;5049881;28;20060;-69
2022/08/05 11:22:40;;;;;;;0.75;0.40;;;23.40;96.50;;;;;;5049797;28;20049;-70
2022/08/05 11:25:42;;;;;;;2.63;0.40;;;23.40;93.10;;;;;;5050107;28;20052;-69
2022/08/05 11:28:08;;;;;;;6.25;0.60;;;23.40;92.60;;;;;;5049747;28;20063;-70
2022/08/05 11:30:56;;;;;;;0.88;0.50;;;23.30;93.00;;;;;;5049550;28;20033;-70
2022/08/05 11:33:31;;;;;;;3.58;0.60;;;23.40;92.20;;;;;;5031584;28;20057;-70
2022/08/05 11:36:03;;;;;;;1.63;0.40;;;23.40;92.30;;;;;;5049896;28;20041;-71
2022/08/05 11:38:37;;;;;;;2.53;0.50;;;23.40;93.30;;;;;;5055699;28;20041;-70
2022/08/05 11:41:26;;;;;;;2.35;0.30;;;23.40;90.60;;;;;;5059495;28;20091;-72
2022/08/05 11:43:57;;;;;;;1.63;0.40;;;23.50;90.40;;;;;;5052624;28;20049;-71
2022/08/05 11:46:31;;;;;;;1.08;0.30;;;23.50;92.10;;;;;;5054019;28;20163;-71
2022/08/05 11:48:58;;;;;;;0.50;0.40;;;23.50;90.30;;;;;;5052523;28;20469;-72
2022/08/05 11:51:26;;;;;;;2.55;0.50;;;23.50;89.70;;;;;;5052434;28;20124;-67
2022/08/05 11:53:52;;;;;;;1.77;0.38;;;23.30;90.70;;;;;;5051271;28;20045;-67
2022/08/05 11:56:18;;;;;;;2.35;0.40;;;23.10;87.20;;;;;;5052338;28;20041;-67
2022/08/05 11:58:45;;;;;;;1.35;0.40;;;23.10;89.10;;;;;;5053332;28;20047;-67
2022/08/05 12:01:17;;;;;;;1.55;0.50;;;23.40;89.60;;;;;;5053177;28;20466;-67
2022/08/05 12:03:45;;;;;;;;;;;23.50;88.30;;;;;;5051788;28;20041;-67
2022/08/05 12:06:13;;;;;;;0.73;0.32;;;23.60;85.30;;;;;;5053254;28;19923;-67
2022/08/05 12:08:41;;;;;;;2.08;0.40;;;23.50;88.20;;;;;;5051557;28;20119;-67
2022/08/05 12:11:08;;;;;;;1.00;0.40;;;23.40;86.70;;;;;;5053170;28;20033;-67
2022/08/05 12:13:36;;;;;;;1.02;0.38;;;23.40;88.50;;;;;;5052714;28;20095;-67
2022/08/05 12:16:03;;;;;;;0.35;0.35;;;23.30;89.30;;;;;;5052994;28;20512;-67
2022/08/05 12:18:33;;;;;;;4.55;0.40;;;23.40;88.40;;;;;;5052669;28;20492;-67
2022/08/05 12:21:33;;;;;;;2.63;0.47;;;23.50;88.40;;;;;;5052885;28;20037;-67
2022/08/05 12:24:01;;;;;;;2.40;0.57;;;23.50;88.40;;;;;;4991514;28;20054;-67
2022/08/05 12:26:31;;;;;;;1.95;0.50;;;23.60;90.60;;;;;;4991125;28;20070;-67
2022/08/05 12:28:56;;;;;;;1.08;0.40;;;23.60;89.30;;;;;;4990941;28;20085;-67
2022/08/05 12:31:22;;;;;;;2.15;0.30;;;23.50;89.60;;;;;;4974471;28;20346;-67
2022/08/05 12:33:48;;;;;;;3.58;0.82;;;23.50;89.90;;;;;;4958248;28;20065;-67
2022/08/05 12:36:14;;;;;;;0.82;0.40;;;23.60;90.10;;;;;;4990811;28;20046;-67
2022/08/05 12:38:40;;;;;;;0.85;0.40;;;23.70;90.30;;;;;;4974741;28;20453;-67
2022/08/05 12:41:11;;;;;;;1.17;0.40;;;23.70;90.80;;;;;;4958374;28;20058;-67
2022/08/05 12:44:01;;;;;;;1.43;0.60;;;23.60;90.10;;;;;;4990509;28;20049;-67
2022/08/05 12:46:29;;;;;;;1.67;0.20;;;23.60;90.30;;;;;;4976320;28;20078;-67
2022/08/05 12:49:01;;;;;;;2.72;0.47;;;23.60;91.40;;;;;;4995127;28;20042;-67
2022/08/05 12:51:30;;;;;;;3.47;0.80;;;23.60;91.40;;;;;;4974010;28;20051;-67
2022/08/05 12:54:00;;;;;;;1.10;0.50;;;23.50;91.60;;;;;;4990346;28;20167;-67
2022/08/05 12:56:27;;;;;;;2.92;0.70;;;23.60;91.80;;;;;;4990604;28;20042;-67
2022/08/05 12:59:14;;;;;;;3.53;0.52;;;23.50;91.10;;;;;;4974228;28;20039;-67